createdAt,value
2017-11-24T00:01:16.571Z,95.49
2017-11-24T00:03:44.135Z,95.68
2017-11-24T00:06:11.731Z,95.65
2017-11-24T00:08:39.335Z,95.61
2017-11-24T00:11:07.181Z,95.52
2017-11-24T00:13:34.831Z,95.44
2017-11-24T00:16:02.452Z,95.39
2017-11-24T00:18:30.086Z,95.48
2017-11-24T00:20:57.700Z,95.44
2017-11-24T00:23:25.278Z,95.42
2017-11-24T00:25:52.857Z,95.38
2017-11-24T00:28:20.452Z,95.40
2017-11-24T00:30:48.041Z,95.54
2017-11-24T00:33:15.601Z,95.53
2017-11-24T00:35:43.196Z,95.38
2017-11-24T00:38:10.830Z,95.38
2017-11-24T00:40:38.423Z,95.34
2017-11-24T00:43:06.108Z,94.99
2017-11-24T00:45:34.108Z,93.73
2017-11-24T00:48:01.667Z,93.90
2017-11-24T00:50:29.231Z,94.06
2017-11-24T00:52:56.866Z,94.17
2017-11-24T00:55:24.464Z,94.27
2017-11-24T00:57:52.030Z,94.51
2017-11-24T01:00:19.587Z,94.70
2017-11-24T01:02:47.157Z,94.91
2017-11-24T01:05:14.708Z,95.23
2017-11-24T01:07:42.278Z,94.77
2017-11-24T01:10:09.895Z,94.54
2017-11-24T01:12:37.451Z,94.65
2017-11-24T01:15:05.138Z,94.79
2017-11-24T01:17:32.752Z,95.02
2017-11-24T01:20:00.315Z,94.96
2017-11-24T01:22:27.878Z,94.84
2017-11-24T01:24:55.474Z,94.67
2017-11-24T01:27:23.738Z,94.73
2017-11-24T01:29:51.446Z,94.74
2017-11-24T01:32:19.047Z,94.78
2017-11-24T01:34:46.614Z,94.77
2017-11-24T01:37:14.379Z,94.95
2017-11-24T01:39:42.022Z,95.21
2017-11-24T01:42:09.772Z,95.61
2017-11-24T01:44:37.339Z,95.55
2017-11-24T01:47:05.131Z,95.47
2017-11-24T01:49:32.720Z,95.46
2017-11-24T01:52:00.323Z,95.67
2017-11-24T01:54:27.924Z,95.69
2017-11-24T01:56:55.532Z,95.75
2017-11-24T01:59:23.107Z,95.83
2017-11-24T02:01:50.724Z,96.02
2017-11-24T02:04:18.300Z,96.14
2017-11-24T02:06:45.867Z,96.13
2017-11-24T02:09:13.583Z,96.15
2017-11-24T02:11:41.130Z,96.31
2017-11-24T02:14:08.737Z,96.22
2017-11-24T02:16:36.459Z,96.15
2017-11-24T02:19:04.105Z,96.29
2017-11-24T02:21:31.740Z,96.39
2017-11-24T02:23:59.313Z,96.45
2017-11-24T02:26:26.884Z,96.49
2017-11-24T02:28:54.479Z,96.28
2017-11-24T02:31:22.891Z,96.33
2017-11-24T02:33:50.450Z,96.44
2017-11-24T02:36:17.986Z,96.46
2017-11-24T02:38:45.606Z,96.54
2017-11-24T02:41:13.324Z,96.52
2017-11-24T02:43:41.043Z,96.71
2017-11-24T02:46:08.646Z,96.79
2017-11-24T02:48:36.227Z,96.95
2017-11-24T02:51:03.892Z,96.99
2017-11-24T02:53:31.915Z,97.06
2017-11-24T02:55:59.828Z,97.02
2017-11-24T02:58:27.407Z,97.02
2017-11-24T03:00:54.970Z,96.98
2017-11-24T03:03:22.809Z,97.07
2017-11-24T03:05:50.350Z,97.18
2017-11-24T03:08:17.934Z,97.12
2017-11-24T03:10:45.532Z,97.10
2017-11-24T03:13:13.537Z,96.92
2017-11-24T03:15:41.140Z,96.77
2017-11-24T03:18:08.766Z,97.07
2017-11-24T03:20:36.312Z,97.03
2017-11-24T03:23:06.097Z,97.02
2017-11-24T03:25:33.720Z,97.02
2017-11-24T03:28:02.061Z,96.54
2017-11-24T03:30:29.652Z,96.00
2017-11-24T03:32:57.222Z,95.06
2017-11-24T03:35:24.815Z,95.30
2017-11-24T03:37:52.396Z,95.29
2017-11-24T03:40:19.987Z,95.54
2017-11-24T03:42:47.556Z,95.69
2017-11-24T03:45:15.433Z,95.86
2017-11-24T03:47:43.024Z,95.78
2017-11-24T03:50:10.807Z,95.22
2017-11-24T03:52:38.607Z,95.24
2017-11-24T03:55:06.181Z,95.16
2017-11-24T03:57:33.840Z,95.00
2017-11-24T04:00:01.551Z,95.09
2017-11-24T04:02:29.142Z,95.32
2017-11-24T04:04:56.699Z,95.19
2017-11-24T04:07:24.266Z,94.95
2017-11-24T04:09:51.853Z,94.87
2017-11-24T04:12:20.162Z,94.70
2017-11-24T04:14:47.736Z,94.89
2017-11-24T04:17:15.333Z,95.19
2017-11-24T04:19:42.963Z,95.23
2017-11-24T04:22:10.603Z,94.94
2017-11-24T04:24:38.188Z,94.95
2017-11-24T04:27:06.132Z,94.82
2017-11-24T04:29:33.682Z,95.02
2017-11-24T04:32:01.240Z,95.18
2017-11-24T04:34:28.864Z,95.09
2017-11-24T04:36:56.396Z,94.86
2017-11-24T04:39:23.974Z,94.63
2017-11-24T04:41:51.579Z,94.43
2017-11-24T04:44:19.245Z,94.63
2017-11-24T04:46:46.896Z,94.68
2017-11-24T04:49:14.503Z,94.72
2017-11-24T04:51:42.089Z,94.69
2017-11-24T04:54:09.698Z,94.78
2017-11-24T04:56:37.302Z,94.97
2017-11-24T04:59:04.857Z,94.97
2017-11-24T05:01:32.427Z,95.07
2017-11-24T05:04:00.038Z,94.96
2017-11-24T05:06:27.618Z,95.24
2017-11-24T05:08:55.182Z,95.34
2017-11-24T05:11:22.774Z,94.99
2017-11-24T05:13:50.385Z,94.78
2017-11-24T05:16:17.952Z,95.05
2017-11-24T05:18:45.584Z,95.17
2017-11-24T05:21:13.514Z,95.28
2017-11-24T05:23:41.126Z,95.29
2017-11-24T05:26:08.768Z,95.33
2017-11-24T05:28:36.340Z,95.33
2017-11-24T05:31:03.955Z,95.30
2017-11-24T05:33:31.531Z,95.25
2017-11-24T05:35:59.111Z,95.51
2017-11-24T05:38:26.672Z,95.59
2017-11-24T05:40:54.265Z,95.72
2017-11-24T05:45:54.631Z,95.44
2017-11-24T05:48:22.231Z,95.49
2017-11-24T05:50:49.808Z,95.38
2017-11-24T05:53:18.102Z,95.43
2017-11-24T05:55:45.690Z,94.89
2017-11-24T05:58:13.313Z,95.05
2017-11-24T06:00:40.962Z,95.15
2017-11-24T06:03:08.692Z,94.89
2017-11-24T06:05:37.174Z,94.90
2017-11-24T06:08:04.778Z,94.94
2017-11-24T06:10:32.359Z,94.98
2017-11-24T06:12:59.937Z,95.18
2017-11-24T06:15:27.542Z,95.34
2017-11-24T06:17:55.154Z,95.74
2017-11-24T06:20:22.756Z,95.91
2017-11-24T06:22:50.347Z,95.86
2017-11-24T06:25:17.955Z,95.67
2017-11-24T06:27:45.566Z,95.64
2017-11-24T06:30:13.204Z,95.57
2017-11-24T06:32:40.791Z,95.37
2017-11-24T06:35:08.386Z,94.92
2017-11-24T06:37:35.984Z,94.67
2017-11-24T06:40:03.588Z,94.98
2017-11-24T06:42:31.209Z,95.18
2017-11-24T06:44:58.797Z,95.22
2017-11-24T06:47:26.640Z,95.27
2017-11-24T06:49:54.271Z,95.19
2017-11-24T06:52:22.146Z,95.52
2017-11-24T06:54:49.736Z,95.54
2017-11-24T06:57:17.429Z,95.68
2017-11-24T06:59:45.181Z,95.85
2017-11-24T07:02:14.139Z,95.85
2017-11-24T07:04:41.803Z,95.63
2017-11-24T07:07:09.532Z,95.64
2017-11-24T07:09:37.191Z,95.99
2017-11-24T07:12:05.842Z,96.06
2017-11-24T07:14:33.423Z,96.26
2017-11-24T07:17:01.054Z,96.18
2017-11-24T07:19:28.774Z,96.02
2017-11-24T07:21:56.725Z,95.86
2017-11-24T07:24:24.320Z,95.85
2017-11-24T07:26:52.004Z,95.59
2017-11-24T07:29:19.600Z,95.14
2017-11-24T07:31:47.512Z,95.44
2017-11-24T07:34:15.207Z,95.59
2017-11-24T07:36:42.814Z,95.72
2017-11-24T07:39:11.395Z,95.71
2017-11-24T07:41:39.019Z,95.61
2017-11-24T07:44:06.606Z,95.45
2017-11-24T07:46:34.202Z,95.24
2017-11-24T07:49:01.797Z,95.27
2017-11-24T07:51:29.351Z,95.19
2017-11-24T07:53:56.939Z,95.22
2017-11-24T07:56:24.545Z,95.14
2017-11-24T07:58:52.121Z,95.36
2017-11-24T08:01:19.700Z,95.21
2017-11-24T08:03:47.352Z,95.06
2017-11-24T08:06:15.144Z,94.80
2017-11-24T08:08:42.715Z,94.52
2017-11-24T08:11:10.465Z,93.99
2017-11-24T08:13:38.049Z,94.18
2017-11-24T08:16:05.654Z,94.11
2017-11-24T08:18:33.311Z,93.84
2017-11-24T08:21:00.942Z,93.77
2017-11-24T08:23:28.695Z,93.76
2017-11-24T08:25:56.381Z,92.84
2017-11-24T08:28:24.867Z,92.62
2017-11-24T08:30:52.443Z,92.52
2017-11-24T08:33:20.181Z,92.66
2017-11-24T08:35:47.847Z,92.38
2017-11-24T08:38:15.532Z,92.20
2017-11-24T08:40:43.178Z,91.62
2017-11-24T08:43:11.157Z,90.48
2017-11-24T08:45:38.969Z,91.36
2017-11-24T08:48:12.063Z,91.42
2017-11-24T08:50:39.635Z,92.15
2017-11-24T08:53:07.396Z,91.12
2017-11-24T08:55:35.153Z,91.49
2017-11-24T08:58:02.747Z,91.51
2017-11-24T09:00:30.324Z,89.56
2017-11-24T09:02:57.888Z,88.33
2017-11-24T09:05:25.645Z,90.05
2017-11-24T09:07:53.267Z,90.79
2017-11-24T09:10:20.830Z,90.72
2017-11-24T09:12:48.433Z,85.21
2017-11-24T09:15:16.021Z,83.89
2017-11-24T09:17:43.598Z,83.02
2017-11-24T09:20:11.216Z,85.61
2017-11-24T09:22:39.469Z,85.77
2017-11-24T09:25:07.126Z,85.11
2017-11-24T09:27:34.820Z,83.53
2017-11-24T09:30:02.410Z,84.24
2017-11-24T09:32:30.028Z,83.69
2017-11-24T09:34:57.579Z,83.85
2017-11-24T09:37:25.115Z,82.58
2017-11-24T09:39:52.705Z,81.75
2017-11-24T09:42:20.277Z,81.68
2017-11-24T09:44:47.869Z,81.41
2017-11-24T09:47:15.456Z,81.96
2017-11-24T09:49:43.035Z,80.71
2017-11-24T09:52:10.696Z,81.23
2017-11-24T09:54:38.314Z,81.17
2017-11-24T09:57:05.941Z,79.11
2017-11-24T09:59:33.541Z,78.90
2017-11-24T10:02:01.113Z,78.12
2017-11-24T10:04:28.660Z,78.38
2017-11-24T10:06:56.220Z,78.13
2017-11-24T10:09:23.842Z,78.37
2017-11-24T10:11:51.617Z,78.10
2017-11-24T10:14:19.189Z,76.62
2017-11-24T10:16:46.756Z,76.04
2017-11-24T10:19:14.393Z,73.99
2017-11-24T10:21:47.438Z,73.91
2017-11-24T10:24:15.142Z,76.68
2017-11-24T10:26:42.710Z,76.77
2017-11-24T10:29:10.504Z,77.25
2017-11-24T10:31:38.102Z,75.77
2017-11-24T10:34:05.665Z,76.07
2017-11-24T10:36:33.214Z,76.95
2017-11-24T10:39:00.841Z,75.64
2017-11-24T10:41:28.391Z,74.40
2017-11-24T10:43:55.962Z,74.62
2017-11-24T10:46:23.646Z,75.78
2017-11-24T10:48:51.185Z,75.86
2017-11-24T10:51:18.724Z,74.87
2017-11-24T10:53:46.357Z,74.22
2017-11-24T10:56:13.976Z,75.13
2017-11-24T10:58:41.552Z,74.35
2017-11-24T11:01:09.201Z,74.84
2017-11-24T11:03:36.738Z,73.23
2017-11-24T11:06:04.293Z,73.40
2017-11-24T11:08:31.844Z,74.19
2017-11-24T11:10:59.427Z,73.60
2017-11-24T11:13:27.006Z,72.92
2017-11-24T11:15:54.607Z,73.58
2017-11-24T11:18:22.133Z,73.65
2017-11-24T11:20:49.673Z,72.83
2017-11-24T11:23:17.222Z,72.86
2017-11-24T11:25:44.789Z,71.89
2017-11-24T11:28:22.843Z,72.59
2017-11-24T11:30:50.405Z,71.61
2017-11-24T11:33:18.007Z,70.58
2017-11-24T11:35:45.574Z,70.75
2017-11-24T11:38:13.160Z,69.97
2017-11-24T11:40:41.008Z,69.11
2017-11-24T11:43:08.580Z,69.79
2017-11-24T11:45:36.830Z,69.85
2017-11-24T11:48:04.384Z,68.98
2017-11-24T11:50:31.944Z,68.61
2017-11-24T11:52:59.545Z,67.28
2017-11-24T11:55:27.133Z,67.44
2017-11-24T11:57:54.701Z,67.56
2017-11-24T12:00:22.272Z,67.56
2017-11-24T12:02:49.867Z,64.52
2017-11-24T12:05:17.390Z,65.13
2017-11-24T12:07:44.926Z,65.05
2017-11-24T12:10:12.659Z,65.50
2017-11-24T12:12:40.190Z,66.16
2017-11-24T12:15:07.834Z,65.51
2017-11-24T12:17:35.446Z,67.37
2017-11-24T12:20:03.011Z,66.02
2017-11-24T12:22:30.558Z,66.01
2017-11-24T12:24:58.132Z,66.52
2017-11-24T12:27:25.678Z,66.02
2017-11-24T12:29:53.257Z,64.72
2017-11-24T12:32:20.875Z,64.69
2017-11-24T12:34:48.457Z,64.05
2017-11-24T12:37:16.022Z,63.27
2017-11-24T12:39:43.587Z,64.29
2017-11-24T12:42:11.145Z,63.63
2017-11-24T12:44:38.692Z,65.32
2017-11-24T12:47:06.326Z,66.82
2017-11-24T12:49:33.885Z,66.42
2017-11-24T12:52:01.452Z,66.40
2017-11-24T12:54:29.030Z,67.40
2017-11-24T12:56:56.579Z,67.06
2017-11-24T12:59:24.182Z,69.84
2017-11-24T13:01:51.749Z,71.51
2017-11-24T13:04:19.304Z,70.77
2017-11-24T13:06:46.889Z,71.17
2017-11-24T13:09:14.474Z,73.63
2017-11-24T13:11:42.027Z,72.24
2017-11-24T13:14:09.587Z,72.89
2017-11-24T13:16:37.149Z,72.16
2017-11-24T13:19:04.699Z,71.98
2017-11-24T13:21:32.307Z,72.62
2017-11-24T13:23:59.850Z,74.42
2017-11-24T13:26:27.386Z,75.59
2017-11-24T13:28:54.945Z,76.61
2017-11-24T13:31:26.155Z,76.91
2017-11-24T13:33:53.699Z,76.15
2017-11-24T13:36:21.248Z,78.19
2017-11-24T13:38:48.810Z,78.78
2017-11-24T13:41:16.350Z,79.83
2017-11-24T13:43:43.881Z,80.56
2017-11-24T13:46:11.492Z,80.77
2017-11-24T13:48:39.052Z,80.58
2017-11-24T13:51:06.639Z,80.28
2017-11-24T13:53:34.209Z,80.89
2017-11-24T13:56:01.740Z,80.61
2017-11-24T13:58:29.327Z,80.39
2017-11-24T14:00:56.954Z,81.15
2017-11-24T14:03:24.520Z,80.11
2017-11-24T14:05:52.116Z,78.95
2017-11-24T14:08:19.748Z,78.49
2017-11-24T14:10:47.278Z,78.55
2017-11-24T14:13:14.829Z,78.81
2017-11-24T14:15:42.423Z,78.66
2017-11-24T14:18:09.960Z,78.90
2017-11-24T14:20:37.526Z,79.67
2017-11-24T14:23:05.134Z,81.45
2017-11-24T14:25:32.679Z,83.11
2017-11-24T14:28:00.256Z,83.56
2017-11-24T14:30:27.916Z,82.72
2017-11-24T14:32:55.473Z,82.18
2017-11-24T14:35:23.053Z,81.74
2017-11-24T14:37:50.626Z,82.14
2017-11-24T14:40:18.169Z,82.45
2017-11-24T14:42:45.698Z,83.39
2017-11-24T14:45:13.254Z,83.45
2017-11-24T14:47:40.810Z,83.33
2017-11-24T14:50:08.342Z,84.48
2017-11-24T14:52:35.969Z,84.53
2017-11-24T14:55:03.524Z,84.71
2017-11-24T14:57:31.072Z,84.52
2017-11-24T14:59:58.649Z,85.71
2017-11-24T15:02:26.187Z,86.17
2017-11-24T15:04:53.755Z,85.85
2017-11-24T15:07:21.344Z,87.01
2017-11-24T15:09:48.892Z,87.16
2017-11-24T15:12:16.637Z,87.09
2017-11-24T15:14:44.206Z,87.25
2017-11-24T15:17:12.192Z,87.56
2017-11-24T15:19:40.128Z,87.73
2017-11-24T15:22:08.311Z,87.80
2017-11-24T15:24:35.882Z,88.27
2017-11-24T15:27:03.531Z,88.40
2017-11-24T15:29:31.110Z,88.95
2017-11-24T15:31:58.669Z,88.78
2017-11-24T15:34:26.243Z,88.66
2017-11-24T15:36:53.838Z,89.00
2017-11-24T15:39:21.422Z,89.77
2017-11-24T15:41:49.067Z,90.25
2017-11-24T15:44:16.653Z,90.71
2017-11-24T15:46:44.243Z,90.93
2017-11-24T15:49:12.016Z,91.36
2017-11-24T15:51:39.772Z,91.28
2017-11-24T15:54:07.360Z,91.62
2017-11-24T15:56:35.180Z,91.92
2017-11-24T15:59:02.916Z,91.80
2017-11-24T16:01:30.642Z,92.13
2017-11-24T16:04:00.598Z,91.87
2017-11-24T16:06:28.186Z,91.55
2017-11-24T16:08:55.755Z,91.29
2017-11-24T16:11:23.356Z,91.16
2017-11-24T16:13:50.928Z,91.23
2017-11-24T16:16:18.522Z,91.20
2017-11-24T16:18:46.115Z,91.22
2017-11-24T16:21:13.782Z,91.88
2017-11-24T16:23:41.343Z,91.84
2017-11-24T16:26:08.925Z,92.21
2017-11-24T16:28:36.514Z,92.40
2017-11-24T16:31:04.099Z,92.37
2017-11-24T16:33:32.426Z,92.42
2017-11-24T16:36:00.057Z,92.19
2017-11-24T16:38:27.617Z,92.15
2017-11-24T16:40:55.161Z,92.15
2017-11-24T16:43:24.236Z,92.38
2017-11-24T16:45:51.917Z,92.31
2017-11-24T16:48:19.511Z,92.64
2017-11-24T16:50:47.123Z,92.60
2017-11-24T16:53:14.673Z,92.45
2017-11-24T16:55:42.275Z,92.42
2017-11-24T16:58:09.893Z,92.64
2017-11-24T17:00:37.464Z,92.79
2017-11-24T17:03:05.209Z,92.97
2017-11-24T17:05:32.797Z,93.14
2017-11-24T17:08:00.439Z,93.00
2017-11-24T17:10:28.035Z,93.14
2017-11-24T17:12:56.691Z,93.07
2017-11-24T17:15:24.375Z,93.30
2017-11-24T17:17:51.991Z,92.95
2017-11-24T17:20:19.591Z,93.01
2017-11-24T17:22:47.553Z,93.30
2017-11-24T17:25:15.201Z,93.46
2017-11-24T17:27:42.821Z,93.45
2017-11-24T17:30:11.453Z,93.31
2017-11-24T17:32:39.079Z,93.34
2017-11-24T17:35:06.645Z,93.08
2017-11-24T17:37:34.260Z,93.17
2017-11-24T17:40:01.853Z,93.04
2017-11-24T17:42:29.487Z,92.88
2017-11-24T17:44:57.240Z,92.77
2017-11-24T17:47:24.910Z,92.78
2017-11-24T17:49:52.484Z,92.85
2017-11-24T17:52:20.077Z,92.87
2017-11-24T17:54:47.625Z,92.91
2017-11-24T17:57:15.176Z,92.96
2017-11-24T17:59:42.786Z,92.92
2017-11-24T18:02:14.287Z,92.81
2017-11-24T18:04:41.843Z,92.91
2017-11-24T18:07:09.858Z,92.97
2017-11-24T18:09:38.108Z,92.75
2017-11-24T18:12:05.696Z,92.21
2017-11-24T18:14:33.333Z,91.83
2017-11-24T18:17:00.906Z,91.86
2017-11-24T18:19:28.524Z,92.18
2017-11-24T18:21:56.321Z,92.58
2017-11-24T18:24:23.882Z,92.75
2017-11-24T18:26:51.496Z,93.07
2017-11-24T18:29:19.126Z,93.13
2017-11-24T18:31:46.760Z,93.11
2017-11-24T18:34:14.356Z,93.24
2017-11-24T18:36:42.000Z,93.31
2017-11-24T18:39:09.769Z,93.47
2017-11-24T18:41:37.430Z,93.52
2017-11-24T18:44:05.029Z,93.40
2017-11-24T18:46:32.636Z,93.32
2017-11-24T18:49:00.218Z,93.00
2017-11-24T18:51:27.857Z,92.36
2017-11-24T18:53:55.456Z,92.04
2017-11-24T18:56:23.117Z,92.06
2017-11-24T18:58:50.771Z,91.83
2017-11-24T19:01:18.354Z,91.58
2017-11-24T19:03:48.540Z,91.39
2017-11-24T19:06:16.158Z,91.45
2017-11-24T19:08:44.432Z,91.75
2017-11-24T19:11:12.083Z,92.08
2017-11-24T19:13:39.659Z,92.52
2017-11-24T19:16:07.220Z,92.74
2017-11-24T19:18:34.837Z,92.79
2017-11-24T19:21:02.617Z,92.63
2017-11-24T19:23:30.201Z,92.58
2017-11-24T19:25:57.897Z,92.42
2017-11-24T19:28:25.489Z,92.01
2017-11-24T19:30:53.109Z,92.16
2017-11-24T19:33:20.751Z,91.98
2017-11-24T19:35:48.548Z,91.81
2017-11-24T19:38:16.204Z,91.51
2017-11-24T19:40:43.814Z,91.28
2017-11-24T19:43:11.639Z,90.93
2017-11-24T19:45:39.202Z,90.64
2017-11-24T19:48:08.523Z,90.65
2017-11-24T19:50:36.181Z,91.14
2017-11-24T19:53:03.776Z,91.57
2017-11-24T19:55:31.361Z,91.74
2017-11-24T19:57:58.915Z,92.03
2017-11-24T20:00:26.533Z,91.93
2017-11-24T20:02:54.098Z,91.45
2017-11-24T20:05:21.780Z,91.23
2017-11-24T20:07:49.350Z,91.02
2017-11-24T20:10:16.942Z,91.47
2017-11-24T20:12:44.614Z,91.90
2017-11-24T20:15:12.275Z,92.75
2017-11-24T20:17:39.845Z,92.95
2017-11-24T20:20:07.439Z,92.37
2017-11-24T20:22:35.020Z,91.21
2017-11-24T20:25:02.575Z,91.05
2017-11-24T20:27:30.184Z,91.26
2017-11-24T20:29:57.797Z,91.29
2017-11-24T20:32:25.386Z,91.60
2017-11-24T20:34:52.997Z,91.79
2017-11-24T20:37:20.568Z,92.12
2017-11-24T20:39:48.144Z,92.66
2017-11-24T20:42:15.730Z,93.00
2017-11-24T20:44:43.306Z,93.06
2017-11-24T20:47:10.907Z,93.01
2017-11-24T20:49:38.498Z,92.98
2017-11-24T20:52:06.064Z,93.19
2017-11-24T20:54:33.643Z,93.35
2017-11-24T20:57:01.241Z,92.65
2017-11-24T20:59:28.814Z,92.15
2017-11-24T21:01:56.428Z,91.70
2017-11-24T21:04:24.035Z,91.40
2017-11-24T21:06:51.610Z,91.36
2017-11-24T21:09:19.191Z,91.26
2017-11-24T21:11:46.777Z,91.07
2017-11-24T21:14:14.387Z,91.17
2017-11-24T21:16:42.167Z,91.56
2017-11-24T21:19:09.958Z,91.87
2017-11-24T21:21:37.514Z,91.96
2017-11-24T21:24:05.147Z,92.69
2017-11-24T21:26:32.802Z,92.83
2017-11-24T21:29:00.447Z,93.44
2017-11-24T21:34:18.476Z,93.75
2017-11-24T21:36:46.073Z,93.68
2017-11-24T21:39:13.674Z,93.99
2017-11-24T21:41:41.284Z,93.95
2017-11-24T21:44:08.845Z,93.78
2017-11-24T21:46:36.402Z,93.30
2017-11-24T21:49:04.055Z,93.03
2017-11-24T21:51:31.703Z,92.81
2017-11-24T21:53:59.245Z,92.60
2017-11-24T21:56:27.849Z,93.13
2017-11-24T21:58:55.448Z,92.88
2017-11-24T22:01:23.008Z,92.96
2017-11-24T22:03:50.600Z,93.10
2017-11-24T22:06:18.219Z,93.29
2017-11-24T22:08:45.773Z,93.57
2017-11-24T22:11:13.391Z,93.97
2017-11-24T22:13:40.960Z,94.34
2017-11-24T22:16:08.624Z,94.37
2017-11-24T22:18:36.360Z,94.36
2017-11-24T22:21:04.036Z,94.44
2017-11-24T22:23:31.604Z,94.22
2017-11-24T22:25:59.156Z,93.80
2017-11-24T22:28:26.770Z,93.91
2017-11-24T22:30:54.491Z,94.32
2017-11-24T22:33:22.162Z,94.56
2017-11-24T22:35:49.751Z,94.89
2017-11-24T22:38:17.405Z,95.18
2017-11-24T22:40:44.983Z,95.20
2017-11-24T22:43:12.811Z,95.22
2017-11-24T22:45:40.460Z,95.47
2017-11-24T22:48:08.059Z,95.90
2017-11-24T22:50:35.675Z,96.12
2017-11-24T22:53:03.360Z,96.60
2017-11-24T22:55:31.079Z,96.79
2017-11-24T22:57:58.691Z,96.47
2017-11-24T23:00:26.257Z,95.71
2017-11-24T23:02:53.856Z,95.64
2017-11-24T23:05:21.429Z,95.95
2017-11-24T23:07:50.599Z,95.93
2017-11-24T23:10:18.685Z,96.07
2017-11-24T23:12:46.269Z,96.14
2017-11-24T23:15:13.894Z,96.17
2017-11-24T23:17:41.510Z,95.98
2017-11-24T23:20:09.096Z,95.26
2017-11-24T23:22:36.667Z,95.16
2017-11-24T23:25:04.929Z,95.43
2017-11-24T23:27:32.484Z,95.80
2017-11-24T23:30:00.074Z,96.27
2017-11-24T23:32:27.724Z,96.70
2017-11-24T23:34:55.295Z,96.73
2017-11-24T23:37:22.856Z,96.79
2017-11-24T23:39:50.477Z,96.70
2017-11-24T23:42:18.104Z,96.68
2017-11-24T23:44:45.656Z,96.73
2017-11-24T23:47:13.251Z,96.85
2017-11-24T23:49:40.843Z,95.80
2017-11-24T23:52:08.399Z,95.01
2017-11-24T23:54:36.048Z,94.77
2017-11-24T23:57:03.603Z,94.43
2017-11-24T23:59:31.187Z,94.08
